createdAt,value
2023-05-05T00:00:37.832Z,71.07
2023-05-05T00:03:41.900Z,70.14
2023-05-05T00:06:44.833Z,70.27
2023-05-05T00:09:47.602Z,70.73
2023-05-05T00:12:50.189Z,71.05
2023-05-05T00:15:56.847Z,71.57
2023-05-05T00:18:59.803Z,73.27
2023-05-05T00:22:02.824Z,70.99
2023-05-05T00:25:06.120Z,70.87
2023-05-05T00:28:09.303Z,70.42
2023-05-05T00:31:12.605Z,69.48
2023-05-05T00:34:15.924Z,70.17
2023-05-05T00:37:18.340Z,70.02
2023-05-05T00:40:21.557Z,71.38
2023-05-05T00:43:24.197Z,70.21
2023-05-05T00:46:29.570Z,69.98
2023-05-05T00:49:33.653Z,71.20
2023-05-05T00:52:39.843Z,70.30
2023-05-05T00:55:42.842Z,70.09
2023-05-05T00:58:45.960Z,70.39
2023-05-05T01:01:49.056Z,70.31
2023-05-05T01:04:51.970Z,71.05
2023-05-05T01:08:16.292Z,70.77
2023-05-05T01:11:46.292Z,70.00
2023-05-05T01:15:06.126Z,70.92
2023-05-05T01:18:38.966Z,70.70
2023-05-05T01:21:46.755Z,71.19
2023-05-05T01:25:38.741Z,71.60
2023-05-05T01:29:03.442Z,71.54
2023-05-05T01:32:15.718Z,72.90
2023-05-05T01:35:29.379Z,73.70
2023-05-05T01:38:40.769Z,74.07
2023-05-05T01:41:49.062Z,73.51
2023-05-05T01:44:53.556Z,73.35
2023-05-05T01:47:58.042Z,73.81
2023-05-05T01:51:03.246Z,74.00
2023-05-05T01:54:08.420Z,74.55
2023-05-05T01:57:13.293Z,74.54
2023-05-05T02:00:18.023Z,74.83
2023-05-05T02:03:22.908Z,75.65
2023-05-05T02:06:28.828Z,75.40
2023-05-05T02:09:33.220Z,74.60
2023-05-05T02:12:37.372Z,75.53
2023-05-05T02:15:42.045Z,75.64
2023-05-05T02:18:47.454Z,75.13
2023-05-05T02:21:51.284Z,75.70
2023-05-05T02:24:54.333Z,75.47
2023-05-05T02:27:59.072Z,75.74
2023-05-05T02:31:05.943Z,75.73
2023-05-05T02:34:09.985Z,75.61
2023-05-05T02:37:19.047Z,76.60
2023-05-05T02:40:28.649Z,76.61
2023-05-05T02:43:33.388Z,75.95
2023-05-05T02:46:38.040Z,76.10
2023-05-05T02:49:40.857Z,76.66
2023-05-05T02:52:45.289Z,76.66
2023-05-05T02:55:55.057Z,77.09
2023-05-05T02:59:31.940Z,77.59
2023-05-05T03:02:44.980Z,78.40
2023-05-05T03:06:21.622Z,78.08
2023-05-05T03:09:33.908Z,78.63
2023-05-05T03:12:40.601Z,78.69
2023-05-05T03:15:57.942Z,78.75
2023-05-05T03:19:03.680Z,78.32
2023-05-05T03:22:07.363Z,78.78
2023-05-05T03:25:10.979Z,79.35
2023-05-05T03:28:14.663Z,78.95
2023-05-05T03:31:18.638Z,79.17
2023-05-05T03:34:25.759Z,78.90
2023-05-05T03:37:28.815Z,79.93
2023-05-05T03:40:43.582Z,79.23
2023-05-05T03:43:49.217Z,78.79
2023-05-05T03:46:51.821Z,78.71
2023-05-05T03:49:55.303Z,78.71
2023-05-05T03:52:58.263Z,78.26
2023-05-05T03:56:01.549Z,79.41
2023-05-05T03:59:04.129Z,78.82
2023-05-05T04:02:07.306Z,79.07
2023-05-05T04:05:09.785Z,78.67
2023-05-05T04:08:12.630Z,78.85
2023-05-05T04:11:16.124Z,77.76
2023-05-05T04:14:19.229Z,78.69
2023-05-05T04:17:21.799Z,78.52
2023-05-05T04:20:25.586Z,77.80
2023-05-05T04:23:28.166Z,77.86
2023-05-05T04:26:31.098Z,76.95
2023-05-05T04:29:33.562Z,76.31
2023-05-05T04:32:36.573Z,76.46
2023-05-05T04:35:40.658Z,76.29
2023-05-05T04:38:43.468Z,75.53
2023-05-05T04:41:45.936Z,75.39
2023-05-05T04:44:48.758Z,75.34
2023-05-05T04:47:52.137Z,74.54
2023-05-05T04:50:55.014Z,73.48
2023-05-05T04:53:58.245Z,73.27
2023-05-05T04:57:01.104Z,73.62
2023-05-05T05:00:05.482Z,73.01
2023-05-05T05:03:08.611Z,72.69
2023-05-05T05:06:11.181Z,72.68
2023-05-05T05:09:13.839Z,71.92
2023-05-05T05:12:16.768Z,71.65
2023-05-05T05:15:19.716Z,70.83
2023-05-05T05:18:22.580Z,71.17
2023-05-05T05:21:26.552Z,71.01
2023-05-05T05:24:30.233Z,70.08
2023-05-05T05:27:33.051Z,68.99
2023-05-05T05:30:35.844Z,69.22
2023-05-05T05:33:41.146Z,69.38
2023-05-05T05:36:43.663Z,69.12
2023-05-05T05:39:52.783Z,67.91
2023-05-05T05:42:57.373Z,66.08
2023-05-05T05:46:01.721Z,65.09
2023-05-05T05:49:04.955Z,63.46
2023-05-05T05:52:08.015Z,63.58
2023-05-05T05:55:10.788Z,62.84
2023-05-05T05:58:16.622Z,61.46
2023-05-05T06:01:19.549Z,58.43
2023-05-05T06:04:22.651Z,58.27
2023-05-05T06:07:25.372Z,57.83
2023-05-05T06:10:28.979Z,56.25
2023-05-05T06:13:37.724Z,55.49
2023-05-05T06:16:41.648Z,55.08
2023-05-05T06:19:48.135Z,55.49
2023-05-05T06:22:51.091Z,53.25
2023-05-05T06:25:55.374Z,53.16
2023-05-05T06:28:58.366Z,52.70
2023-05-05T06:32:01.482Z,52.54
2023-05-05T06:35:04.322Z,51.75
2023-05-05T06:38:07.042Z,51.02
2023-05-05T06:41:09.626Z,53.16
2023-05-05T06:44:12.039Z,50.65
2023-05-05T06:47:14.681Z,49.23
2023-05-05T06:50:17.203Z,48.41
2023-05-05T06:53:20.177Z,48.71
2023-05-05T06:56:23.950Z,49.10
2023-05-05T06:59:27.077Z,48.67
2023-05-05T07:02:29.718Z,48.77
2023-05-05T07:05:32.881Z,46.32
2023-05-05T07:08:35.479Z,49.12
2023-05-05T07:11:38.519Z,49.71
2023-05-05T07:14:41.092Z,48.42
2023-05-05T07:17:43.937Z,48.30
2023-05-05T07:20:46.780Z,49.08
2023-05-05T07:23:49.416Z,48.57
2023-05-05T07:26:52.129Z,47.14
2023-05-05T07:29:54.736Z,46.71
2023-05-05T07:32:57.331Z,44.51
2023-05-05T07:36:00.116Z,46.35
2023-05-05T07:39:02.665Z,45.52
2023-05-05T07:42:06.928Z,44.29
2023-05-05T07:45:09.724Z,44.53
2023-05-05T07:48:12.466Z,42.29
2023-05-05T07:51:14.861Z,42.31
2023-05-05T07:54:17.939Z,40.25
2023-05-05T07:57:21.125Z,38.79
2023-05-05T08:00:23.832Z,42.36
2023-05-05T08:03:26.622Z,38.55
2023-05-05T08:06:31.702Z,40.61
2023-05-05T08:09:35.290Z,39.26
2023-05-05T08:12:38.085Z,40.24
2023-05-05T08:15:41.052Z,36.23
2023-05-05T08:18:43.550Z,40.19
2023-05-05T08:21:46.359Z,37.74
2023-05-05T08:24:49.182Z,37.77
2023-05-05T08:27:51.727Z,37.27
2023-05-05T08:30:54.449Z,34.98
2023-05-05T08:33:57.214Z,38.18
2023-05-05T08:36:59.709Z,34.12
2023-05-05T08:40:02.420Z,35.40
2023-05-05T08:43:05.692Z,34.47
2023-05-05T08:49:17.808Z,34.71
2023-05-05T08:52:23.893Z,34.21
2023-05-05T08:55:33.507Z,36.18
2023-05-05T08:58:37.674Z,34.23
2023-05-05T09:01:41.973Z,35.58
2023-05-05T09:04:44.927Z,35.17
2023-05-05T09:07:47.924Z,35.82
2023-05-05T09:10:51.648Z,36.54
2023-05-05T09:13:55.922Z,37.68
2023-05-05T09:16:58.555Z,38.81
2023-05-05T09:20:14.864Z,33.69
2023-05-05T09:23:21.141Z,32.89
2023-05-05T09:26:24.090Z,32.61
2023-05-05T09:29:26.862Z,33.22
2023-05-05T09:32:30.655Z,33.41
2023-05-05T09:35:51.503Z,33.11
2023-05-05T09:39:04.924Z,33.47
2023-05-05T09:42:18.049Z,33.69
2023-05-05T09:45:20.887Z,33.16
2023-05-05T09:48:31.806Z,33.29
2023-05-05T09:51:34.766Z,33.78
2023-05-05T09:54:37.288Z,33.06
2023-05-05T09:57:40.038Z,32.97
2023-05-05T10:00:42.499Z,33.38
2023-05-05T10:03:54.257Z,29.92
2023-05-05T10:06:57.986Z,31.90
2023-05-05T10:10:00.919Z,31.72
2023-05-05T10:13:03.475Z,29.81
2023-05-05T10:16:09.444Z,30.29
2023-05-05T10:19:14.703Z,30.88
2023-05-05T10:22:18.502Z,30.71
2023-05-05T10:25:30.069Z,31.28
2023-05-05T10:28:53.551Z,30.88
2023-05-05T10:32:14.088Z,33.91
2023-05-05T10:35:28.525Z,30.87
2023-05-05T10:38:52.967Z,32.43
2023-05-05T10:41:55.886Z,34.06
2023-05-05T10:45:01.114Z,30.42
2023-05-05T10:48:09.010Z,31.38
2023-05-05T10:51:35.314Z,32.55
2023-05-05T10:55:10.071Z,33.92
2023-05-05T10:58:50.981Z,34.65
2023-05-05T11:01:54.323Z,34.75
2023-05-05T11:05:06.162Z,32.87
2023-05-05T11:08:27.232Z,32.26
2023-05-05T11:12:02.868Z,33.98
2023-05-05T11:15:24.312Z,31.77
2023-05-05T11:18:31.301Z,33.44
2023-05-05T11:22:01.120Z,33.15
2023-05-05T11:25:36.366Z,32.58
2023-05-05T11:28:58.972Z,33.12
2023-05-05T11:32:12.324Z,33.54
2023-05-05T11:35:15.586Z,35.72
2023-05-05T11:38:22.059Z,34.17
2023-05-05T11:41:52.430Z,33.77
2023-05-05T11:44:55.459Z,32.05
2023-05-05T11:48:29.380Z,32.59
2023-05-05T11:51:32.363Z,32.61
2023-05-05T11:54:36.742Z,31.40
2023-05-05T11:57:40.209Z,33.25
2023-05-05T12:00:42.724Z,31.78
2023-05-05T12:03:46.086Z,31.79
2023-05-05T12:06:51.483Z,30.22
2023-05-05T12:09:55.099Z,31.30
2023-05-05T12:12:58.185Z,31.60
2023-05-05T12:16:11.324Z,30.88
2023-05-05T12:19:14.447Z,29.65
2023-05-05T12:22:25.619Z,30.46
2023-05-05T12:25:36.347Z,31.73
2023-05-05T12:28:48.643Z,31.16
2023-05-05T12:31:51.740Z,30.28
2023-05-05T12:34:57.546Z,33.08
2023-05-05T12:38:00.316Z,32.74
2023-05-05T12:41:03.075Z,32.65
2023-05-05T12:44:06.711Z,31.23
2023-05-05T12:47:09.723Z,35.73
2023-05-05T12:50:12.455Z,32.77
2023-05-05T12:53:25.742Z,31.91
2023-05-05T12:56:44.569Z,34.88
2023-05-05T12:59:47.060Z,35.64
2023-05-05T13:02:50.024Z,36.25
2023-05-05T13:05:52.738Z,34.28
2023-05-05T13:08:56.758Z,34.92
2023-05-05T13:11:59.572Z,34.08
2023-05-05T13:15:02.140Z,36.07
2023-05-05T13:18:04.891Z,34.25
2023-05-05T13:21:10.248Z,35.70
2023-05-05T13:24:25.993Z,34.23
2023-05-05T13:27:34.555Z,33.49
2023-05-05T13:30:37.145Z,32.79
2023-05-05T13:33:40.079Z,34.61
2023-05-05T13:36:42.774Z,37.72
2023-05-05T13:39:45.376Z,33.56
2023-05-05T13:42:48.162Z,33.33
2023-05-05T13:45:50.969Z,33.00
2023-05-05T13:48:56.720Z,35.17
2023-05-05T13:51:59.538Z,33.76
2023-05-05T13:55:02.060Z,33.50
2023-05-05T13:58:04.794Z,32.20
2023-05-05T14:01:07.936Z,35.74
2023-05-05T14:04:10.592Z,35.68
2023-05-05T14:07:13.149Z,36.28
2023-05-05T14:10:16.331Z,38.12
2023-05-05T14:13:19.241Z,36.83
2023-05-05T14:16:22.002Z,35.41
2023-05-05T14:19:24.973Z,36.14
2023-05-05T14:22:27.652Z,39.45
2023-05-05T14:25:30.835Z,37.67
2023-05-05T14:28:33.496Z,36.76
2023-05-05T14:31:37.032Z,38.14
2023-05-05T14:34:39.796Z,36.14
2023-05-05T14:37:42.434Z,38.01
2023-05-05T14:40:45.059Z,37.88
2023-05-05T14:43:47.992Z,39.23
2023-05-05T14:46:51.287Z,36.80
2023-05-05T14:49:53.981Z,36.74
2023-05-05T14:52:56.817Z,39.65
2023-05-05T14:56:01.064Z,39.19
2023-05-05T14:59:03.621Z,36.97
2023-05-05T15:02:06.813Z,38.04
2023-05-05T15:05:10.392Z,37.41
2023-05-05T15:08:14.789Z,36.62
2023-05-05T15:11:17.476Z,40.00
2023-05-05T15:14:20.342Z,39.55
2023-05-05T15:17:23.145Z,39.12
2023-05-05T15:20:25.930Z,39.20
2023-05-05T15:23:28.565Z,38.93
2023-05-05T15:26:31.508Z,40.06
2023-05-05T15:29:34.241Z,38.76
2023-05-05T15:32:37.296Z,39.24
2023-05-05T15:35:40.121Z,40.37
2023-05-05T15:38:43.626Z,40.33
2023-05-05T15:41:46.316Z,41.74
2023-05-05T15:44:49.343Z,41.41
2023-05-05T15:47:52.903Z,41.06
2023-05-05T15:50:55.648Z,39.78
2023-05-05T15:53:58.089Z,39.69
2023-05-05T15:57:00.816Z,40.43
2023-05-05T16:00:08.906Z,41.14
2023-05-05T16:03:38.963Z,42.28
2023-05-05T16:06:44.401Z,42.72
2023-05-05T16:09:46.943Z,42.56
2023-05-05T16:12:49.660Z,42.21
2023-05-05T16:15:52.353Z,43.09
2023-05-05T16:18:54.977Z,46.29
2023-05-05T16:21:58.049Z,44.32
2023-05-05T16:25:00.578Z,43.04
2023-05-05T16:28:03.490Z,45.59
2023-05-05T16:31:05.981Z,43.23
2023-05-05T16:34:08.758Z,43.19
2023-05-05T16:37:12.731Z,44.17
2023-05-05T16:40:15.730Z,45.36
2023-05-05T16:43:19.620Z,45.41
2023-05-05T16:46:22.301Z,45.99
2023-05-05T16:49:25.112Z,46.67
2023-05-05T16:52:28.061Z,48.13
2023-05-05T16:55:30.503Z,47.76
2023-05-05T16:58:33.222Z,47.85
2023-05-05T17:01:35.636Z,49.76
2023-05-05T17:04:38.830Z,49.39
2023-05-05T17:07:41.506Z,49.50
2023-05-05T17:10:45.874Z,49.66
2023-05-05T17:13:48.530Z,47.55
2023-05-05T17:16:51.407Z,48.70
2023-05-05T17:19:53.992Z,48.27
2023-05-05T17:22:56.654Z,50.12
2023-05-05T17:25:59.473Z,53.02
2023-05-05T17:29:02.873Z,53.52
2023-05-05T17:32:06.178Z,54.85
2023-05-05T17:35:09.855Z,53.45
2023-05-05T17:38:13.175Z,52.36
2023-05-05T17:41:16.042Z,51.36
2023-05-05T17:44:18.796Z,51.04
2023-05-05T17:47:22.634Z,55.49
2023-05-05T17:50:25.451Z,54.88
2023-05-05T17:53:28.233Z,53.45
2023-05-05T17:56:30.657Z,54.34
2023-05-05T17:59:33.286Z,55.21
2023-05-05T18:02:37.172Z,54.71
2023-05-05T18:05:40.259Z,54.89
2023-05-05T18:08:43.469Z,55.10
2023-05-05T18:11:46.086Z,58.74
2023-05-05T18:14:48.713Z,59.27
2023-05-05T18:17:51.298Z,59.47
2023-05-05T18:20:54.125Z,61.22
2023-05-05T18:24:01.907Z,61.57
2023-05-05T18:27:10.402Z,58.89
2023-05-05T18:30:13.674Z,58.41
2023-05-05T18:33:16.151Z,60.13
2023-05-05T18:36:18.868Z,61.71
2023-05-05T18:39:21.688Z,61.24
2023-05-05T18:42:24.268Z,61.33
2023-05-05T18:45:26.963Z,62.55
2023-05-05T18:48:30.912Z,63.12
2023-05-05T18:51:33.554Z,63.33
2023-05-05T18:54:37.798Z,65.98
2023-05-05T18:57:40.558Z,65.87
2023-05-05T19:00:43.548Z,66.21
2023-05-05T19:03:48.071Z,66.04
2023-05-05T19:06:52.537Z,64.78
2023-05-05T19:09:55.516Z,65.39
2023-05-05T19:12:59.231Z,65.94
2023-05-05T19:16:02.128Z,66.05
2023-05-05T19:19:04.962Z,66.40
2023-05-05T19:22:07.752Z,65.37
2023-05-05T19:25:11.167Z,64.39
2023-05-05T19:28:13.909Z,65.26
2023-05-05T19:31:16.909Z,66.71
2023-05-05T19:34:19.781Z,66.96
2023-05-05T19:37:23.090Z,66.41
2023-05-05T19:40:26.182Z,65.11
2023-05-05T19:43:28.910Z,67.34
2023-05-05T19:46:31.954Z,68.25
2023-05-05T19:49:34.938Z,68.61
2023-05-05T19:52:38.485Z,68.39
2023-05-05T19:55:41.417Z,68.60
2023-05-05T19:59:01.444Z,69.00
2023-05-05T20:02:04.406Z,69.11
2023-05-05T20:05:07.166Z,70.14
2023-05-05T20:08:09.918Z,71.51
2023-05-05T20:11:14.464Z,71.37
2023-05-05T20:14:17.179Z,72.84
2023-05-05T20:17:21.463Z,72.77
2023-05-05T20:20:24.187Z,72.76
2023-05-05T20:23:27.227Z,72.85
2023-05-05T20:26:30.911Z,72.58
2023-05-05T20:29:33.483Z,74.03
2023-05-05T20:32:36.842Z,74.76
2023-05-05T20:35:39.380Z,74.38
2023-05-05T20:38:43.337Z,74.36
2023-05-05T20:41:46.918Z,73.57
2023-05-05T20:44:49.761Z,73.38
2023-05-05T20:47:52.461Z,73.24
2023-05-05T20:50:55.710Z,74.20
2023-05-05T20:54:00.426Z,74.19
2023-05-05T20:57:03.297Z,74.94
2023-05-05T21:00:06.655Z,74.64
2023-05-05T21:03:09.817Z,74.45
2023-05-05T21:06:12.440Z,73.33
2023-05-05T21:09:15.261Z,73.00
2023-05-05T21:12:17.779Z,74.35
2023-05-05T21:15:20.516Z,75.08
2023-05-05T21:18:25.780Z,74.12
2023-05-05T21:21:28.364Z,74.43
2023-05-05T21:24:31.158Z,74.37
2023-05-05T21:27:33.821Z,74.40
2023-05-05T21:30:36.325Z,74.67
2023-05-05T21:33:39.518Z,74.54
2023-05-05T21:36:41.870Z,75.45
2023-05-05T21:39:44.960Z,78.18
2023-05-05T21:42:47.677Z,79.60
2023-05-05T21:46:01.995Z,79.48
2023-05-05T21:49:13.778Z,78.50
2023-05-05T21:52:17.327Z,78.39
2023-05-05T21:55:19.932Z,77.91
2023-05-05T21:58:25.317Z,77.49
2023-05-05T22:01:28.055Z,77.43
2023-05-05T22:04:31.103Z,77.66
2023-05-05T22:07:33.560Z,78.26
2023-05-05T22:10:36.296Z,78.69
2023-05-05T22:13:39.316Z,78.87
2023-05-05T22:16:41.860Z,78.71
2023-05-05T22:19:44.580Z,78.98
2023-05-05T22:22:47.729Z,78.38
2023-05-05T22:25:50.479Z,77.60
2023-05-05T22:28:53.209Z,77.17
2023-05-05T22:31:55.838Z,77.78
2023-05-05T22:34:59.196Z,77.80
2023-05-05T22:38:01.764Z,77.92
2023-05-05T22:41:06.759Z,77.43
2023-05-05T22:44:09.463Z,78.17
2023-05-05T22:47:13.513Z,78.93
2023-05-05T22:50:16.166Z,80.29
2023-05-05T22:53:18.964Z,80.35
2023-05-05T22:56:21.739Z,80.15
2023-05-05T22:59:25.416Z,80.05
2023-05-05T23:02:28.396Z,80.07
2023-05-05T23:05:31.522Z,80.49
2023-05-05T23:08:33.957Z,79.58
2023-05-05T23:11:37.019Z,79.67
2023-05-05T23:14:39.940Z,79.17
2023-05-05T23:17:42.793Z,78.92
2023-05-05T23:20:45.511Z,79.38
2023-05-05T23:23:48.775Z,79.41
2023-05-05T23:26:52.074Z,79.07
2023-05-05T23:29:54.775Z,78.90
2023-05-05T23:32:58.054Z,79.16
2023-05-05T23:36:01.213Z,78.53
2023-05-05T23:39:03.804Z,78.62
2023-05-05T23:42:07.088Z,78.98
2023-05-05T23:45:10.456Z,79.45
2023-05-05T23:48:13.602Z,78.99
2023-05-05T23:51:16.566Z,79.51
2023-05-05T23:54:19.381Z,79.16
2023-05-05T23:57:22.288Z,79.22
